sensor_id;sensor_type;location;lat;lon;timestamp;P1;durP1;ratioP1;P2;durP2;ratioP2
35120;SDS011;21297;52.008;4.576;2023-07-13T00:17:56;24.60;;;4.82;;
35120;SDS011;21297;52.008;4.576;2023-07-13T00:20:42;19.73;;;4.50;;
35120;SDS011;21297;52.008;4.576;2023-07-13T00:34:31;23.20;;;4.18;;
35120;SDS011;21297;52.008;4.576;2023-07-13T00:37:25;20.30;;;4.18;;
35120;SDS011;21297;52.008;4.576;2023-07-13T00:47:53;24.60;;;4.80;;
35120;SDS011;21297;52.008;4.576;2023-07-13T00:53:29;27.67;;;4.35;;
35120;SDS011;21297;52.008;4.576;2023-07-13T00:59:33;22.73;;;3.65;;
35120;SDS011;21297;52.008;4.576;2023-07-13T01:05:19;27.83;;;3.88;;
35120;SDS011;21297;52.008;4.576;2023-07-13T01:08:21;22.67;;;3.67;;
35120;SDS011;21297;52.008;4.576;2023-07-13T01:11:19;27.13;;;4.05;;
35120;SDS011;21297;52.008;4.576;2023-07-13T01:22:57;16.88;;;2.97;;
35120;SDS011;21297;52.008;4.576;2023-07-13T01:25:49;20.10;;;3.85;;
35120;SDS011;21297;52.008;4.576;2023-07-13T01:28:55;16.02;;;3.30;;
35120;SDS011;21297;52.008;4.576;2023-07-13T01:32:10;14.00;;;2.83;;
35120;SDS011;21297;52.008;4.576;2023-07-13T01:34:57;17.13;;;3.00;;
35120;SDS011;21297;52.008;4.576;2023-07-13T01:37:46;15.75;;;2.90;;
35120;SDS011;21297;52.008;4.576;2023-07-13T01:43:33;10.55;;;2.45;;
35120;SDS011;21297;52.008;4.576;2023-07-13T01:46:21;13.70;;;2.33;;
35120;SDS011;21297;52.008;4.576;2023-07-13T01:49:13;12.85;;;2.42;;
35120;SDS011;21297;52.008;4.576;2023-07-13T01:51:59;10.90;;;2.35;;
35120;SDS011;21297;52.008;4.576;2023-07-13T01:54:44;10.02;;;2.45;;
35120;SDS011;21297;52.008;4.576;2023-07-13T02:00:06;8.57;;;1.67;;
35120;SDS011;21297;52.008;4.576;2023-07-13T02:22:46;11.15;;;2.20;;
35120;SDS011;21297;52.008;4.576;2023-07-13T03:14:57;20.83;;;4.07;;
35120;SDS011;21297;52.008;4.576;2023-07-13T03:17:52;20.10;;;3.65;;
35120;SDS011;21297;52.008;4.576;2023-07-13T03:20:38;18.88;;;4.55;;
35120;SDS011;21297;52.008;4.576;2023-07-13T03:23:24;19.27;;;3.95;;
35120;SDS011;21297;52.008;4.576;2023-07-13T03:46:30;18.15;;;4.50;;
35120;SDS011;21297;52.008;4.576;2023-07-13T03:52:16;25.53;;;5.60;;
35120;SDS011;21297;52.008;4.576;2023-07-13T03:55:02;18.35;;;4.38;;
35120;SDS011;21297;52.008;4.576;2023-07-13T03:57:54;27.73;;;4.55;;
35120;SDS011;21297;52.008;4.576;2023-07-13T04:00:59;22.80;;;4.40;;
35120;SDS011;21297;52.008;4.576;2023-07-13T04:19:23;21.30;;;4.10;;
35120;SDS011;21297;52.008;4.576;2023-07-13T04:25:28;20.70;;;4.32;;
35120;SDS011;21297;52.008;4.576;2023-07-13T04:28:43;19.08;;;3.60;;
35120;SDS011;21297;52.008;4.576;2023-07-13T04:31:29;19.17;;;4.50;;
35120;SDS011;21297;52.008;4.576;2023-07-13T04:34:15;20.65;;;3.92;;
35120;SDS011;21297;52.008;4.576;2023-07-13T04:37:02;19.83;;;4.15;;
35120;SDS011;21297;52.008;4.576;2023-07-13T04:39:49;19.75;;;3.95;;
35120;SDS011;21297;52.008;4.576;2023-07-13T04:42:35;16.02;;;3.80;;
35120;SDS011;21297;52.008;4.576;2023-07-13T04:45:21;20.17;;;4.13;;
35120;SDS011;21297;52.008;4.576;2023-07-13T04:48:09;18.45;;;4.45;;
35120;SDS011;21297;52.008;4.576;2023-07-13T04:50:55;28.13;;;4.53;;
35120;SDS011;21297;52.008;4.576;2023-07-13T04:53:42;14.98;;;4.03;;
35120;SDS011;21297;52.008;4.576;2023-07-13T04:56:28;19.92;;;4.63;;
35120;SDS011;21297;52.008;4.576;2023-07-13T04:59:15;18.30;;;3.75;;
35120;SDS011;21297;52.008;4.576;2023-07-13T05:02:01;20.33;;;3.50;;
35120;SDS011;21297;52.008;4.576;2023-07-13T05:04:47;17.63;;;4.13;;
35120;SDS011;21297;52.008;4.576;2023-07-13T05:07:33;18.23;;;4.13;;
35120;SDS011;21297;52.008;4.576;2023-07-13T05:10:19;17.85;;;4.30;;
35120;SDS011;21297;52.008;4.576;2023-07-13T05:13:05;14.07;;;2.75;;
35120;SDS011;21297;52.008;4.576;2023-07-13T05:16:00;16.73;;;3.55;;
35120;SDS011;21297;52.008;4.576;2023-07-13T05:18:49;12.93;;;2.80;;
35120;SDS011;21297;52.008;4.576;2023-07-13T05:21:34;14.32;;;3.08;;
35120;SDS011;21297;52.008;4.576;2023-07-13T05:24:20;15.73;;;2.72;;
35120;SDS011;21297;52.008;4.576;2023-07-13T05:27:06;10.88;;;2.58;;
35120;SDS011;21297;52.008;4.576;2023-07-13T05:29:52;12.50;;;2.72;;
35120;SDS011;21297;52.008;4.576;2023-07-13T05:32:38;14.82;;;3.05;;
35120;SDS011;21297;52.008;4.576;2023-07-13T05:35:24;11.98;;;2.90;;
35120;SDS011;21297;52.008;4.576;2023-07-13T05:38:09;19.25;;;2.83;;
35120;SDS011;21297;52.008;4.576;2023-07-13T05:40:55;10.02;;;2.38;;
35120;SDS011;21297;52.008;4.576;2023-07-13T05:43:42;11.85;;;2.90;;
35120;SDS011;21297;52.008;4.576;2023-07-13T05:46:27;10.45;;;2.90;;
35120;SDS011;21297;52.008;4.576;2023-07-13T05:49:13;13.35;;;3.47;;
35120;SDS011;21297;52.008;4.576;2023-07-13T05:51:59;14.35;;;3.75;;
35120;SDS011;21297;52.008;4.576;2023-07-13T05:54:45;15.95;;;3.05;;
35120;SDS011;21297;52.008;4.576;2023-07-13T05:57:31;21.83;;;4.53;;
35120;SDS011;21297;52.008;4.576;2023-07-13T06:00:17;22.63;;;4.95;;
35120;SDS011;21297;52.008;4.576;2023-07-13T06:03:03;23.40;;;4.72;;
35120;SDS011;21297;52.008;4.576;2023-07-13T06:05:48;23.38;;;5.43;;
35120;SDS011;21297;52.008;4.576;2023-07-13T06:08:34;21.92;;;4.53;;
35120;SDS011;21297;52.008;4.576;2023-07-13T06:11:23;20.15;;;4.07;;
35120;SDS011;21297;52.008;4.576;2023-07-13T06:14:10;9.55;;;2.70;;
35120;SDS011;21297;52.008;4.576;2023-07-13T06:16:56;8.32;;;2.08;;
35120;SDS011;21297;52.008;4.576;2023-07-13T06:19:42;10.05;;;2.20;;
35120;SDS011;21297;52.008;4.576;2023-07-13T06:22:28;8.02;;;2.00;;
35120;SDS011;21297;52.008;4.576;2023-07-13T06:25:14;8.05;;;2.30;;
35120;SDS011;21297;52.008;4.576;2023-07-13T06:28:00;7.10;;;2.22;;
35120;SDS011;21297;52.008;4.576;2023-07-13T06:30:45;9.40;;;2.33;;
35120;SDS011;21297;52.008;4.576;2023-07-13T06:33:31;9.43;;;2.50;;
35120;SDS011;21297;52.008;4.576;2023-07-13T06:36:17;9.65;;;2.45;;
35120;SDS011;21297;52.008;4.576;2023-07-13T06:39:03;7.85;;;2.30;;
35120;SDS011;21297;52.008;4.576;2023-07-13T06:41:49;13.60;;;2.55;;
35120;SDS011;21297;52.008;4.576;2023-07-13T06:44:34;9.05;;;2.22;;
35120;SDS011;21297;52.008;4.576;2023-07-13T06:47:20;8.05;;;2.40;;
35120;SDS011;21297;52.008;4.576;2023-07-13T06:50:06;6.78;;;1.90;;
35120;SDS011;21297;52.008;4.576;2023-07-13T06:52:52;8.35;;;2.25;;
35120;SDS011;21297;52.008;4.576;2023-07-13T06:55:38;6.28;;;2.05;;
35120;SDS011;21297;52.008;4.576;2023-07-13T06:58:24;8.10;;;2.17;;
35120;SDS011;21297;52.008;4.576;2023-07-13T07:01:10;7.97;;;2.40;;
35120;SDS011;21297;52.008;4.576;2023-07-13T07:03:56;8.77;;;2.42;;
35120;SDS011;21297;52.008;4.576;2023-07-13T07:06:42;11.13;;;3.10;;
35120;SDS011;21297;52.008;4.576;2023-07-13T07:09:28;8.50;;;2.58;;
35120;SDS011;21297;52.008;4.576;2023-07-13T07:12:15;11.40;;;2.65;;
35120;SDS011;21297;52.008;4.576;2023-07-13T07:15:01;12.93;;;2.72;;
35120;SDS011;21297;52.008;4.576;2023-07-13T07:17:46;16.58;;;3.13;;
35120;SDS011;21297;52.008;4.576;2023-07-13T07:20:32;9.32;;;3.03;;
35120;SDS011;21297;52.008;4.576;2023-07-13T07:23:18;8.40;;;2.55;;
35120;SDS011;21297;52.008;4.576;2023-07-13T07:26:04;9.75;;;2.67;;
35120;SDS011;21297;52.008;4.576;2023-07-13T07:28:50;8.77;;;2.13;;
35120;SDS011;21297;52.008;4.576;2023-07-13T07:31:36;14.38;;;3.00;;
35120;SDS011;21297;52.008;4.576;2023-07-13T07:34:22;14.15;;;2.85;;
35120;SDS011;21297;52.008;4.576;2023-07-13T07:37:12;14.10;;;3.03;;
35120;SDS011;21297;52.008;4.576;2023-07-13T07:39:59;10.60;;;2.55;;
35120;SDS011;21297;52.008;4.576;2023-07-13T07:42:44;10.35;;;2.53;;
35120;SDS011;21297;52.008;4.576;2023-07-13T07:45:30;13.40;;;2.60;;
35120;SDS011;21297;52.008;4.576;2023-07-13T07:48:16;10.60;;;2.97;;
35120;SDS011;21297;52.008;4.576;2023-07-13T07:51:02;10.43;;;2.88;;
35120;SDS011;21297;52.008;4.576;2023-07-13T07:53:48;11.80;;;2.83;;
35120;SDS011;21297;52.008;4.576;2023-07-13T07:56:34;9.40;;;2.47;;
35120;SDS011;21297;52.008;4.576;2023-07-13T07:59:19;13.98;;;3.08;;
35120;SDS011;21297;52.008;4.576;2023-07-13T08:02:05;10.65;;;2.50;;
35120;SDS011;21297;52.008;4.576;2023-07-13T08:04:52;13.40;;;2.63;;
35120;SDS011;21297;52.008;4.576;2023-07-13T08:07:38;12.75;;;3.03;;
35120;SDS011;21297;52.008;4.576;2023-07-13T08:10:24;11.60;;;2.47;;
35120;SDS011;21297;52.008;4.576;2023-07-13T08:13:11;10.52;;;2.50;;
35120;SDS011;21297;52.008;4.576;2023-07-13T08:15:57;12.18;;;2.58;;
35120;SDS011;21297;52.008;4.576;2023-07-13T08:18:43;11.40;;;2.85;;
35120;SDS011;21297;52.008;4.576;2023-07-13T08:21:29;9.13;;;2.80;;
35120;SDS011;21297;52.008;4.576;2023-07-13T08:24:15;11.88;;;3.03;;
35120;SDS011;21297;52.008;4.576;2023-07-13T08:27:03;10.02;;;3.05;;
35120;SDS011;21297;52.008;4.576;2023-07-13T08:29:49;11.23;;;2.55;;
35120;SDS011;21297;52.008;4.576;2023-07-13T08:32:36;11.55;;;2.40;;
35120;SDS011;21297;52.008;4.576;2023-07-13T08:35:22;10.43;;;2.35;;
35120;SDS011;21297;52.008;4.576;2023-07-13T08:38:07;10.55;;;2.60;;
35120;SDS011;21297;52.008;4.576;2023-07-13T08:40:55;10.82;;;3.13;;
35120;SDS011;21297;52.008;4.576;2023-07-13T08:43:42;9.60;;;3.10;;
35120;SDS011;21297;52.008;4.576;2023-07-13T08:46:35;15.32;;;3.08;;
35120;SDS011;21297;52.008;4.576;2023-07-13T08:49:24;9.85;;;3.13;;
35120;SDS011;21297;52.008;4.576;2023-07-13T08:52:14;14.52;;;3.67;;
35120;SDS011;21297;52.008;4.576;2023-07-13T08:55:12;11.85;;;3.05;;
35120;SDS011;21297;52.008;4.576;2023-07-13T08:58:02;10.00;;;2.85;;
35120;SDS011;21297;52.008;4.576;2023-07-13T09:04:09;15.10;;;3.40;;
35120;SDS011;21297;52.008;4.576;2023-07-13T09:07:00;13.13;;;3.38;;
35120;SDS011;21297;52.008;4.576;2023-07-13T09:15:47;16.88;;;3.28;;
35120;SDS011;21297;52.008;4.576;2023-07-13T09:18:54;10.65;;;3.05;;
35120;SDS011;21297;52.008;4.576;2023-07-13T09:21:45;10.70;;;3.05;;
35120;SDS011;21297;52.008;4.576;2023-07-13T09:24:39;11.48;;;2.70;;
35120;SDS011;21297;52.008;4.576;2023-07-13T09:27:36;9.43;;;3.25;;
35120;SDS011;21297;52.008;4.576;2023-07-13T09:30:30;11.13;;;2.78;;
35120;SDS011;21297;52.008;4.576;2023-07-13T09:33:23;10.95;;;3.05;;
35120;SDS011;21297;52.008;4.576;2023-07-13T09:36:22;6.90;;;2.22;;
35120;SDS011;21297;52.008;4.576;2023-07-13T09:39:18;7.38;;;2.05;;
35120;SDS011;21297;52.008;4.576;2023-07-13T09:44:59;11.10;;;2.20;;
35120;SDS011;21297;52.008;4.576;2023-07-13T09:47:48;8.63;;;2.50;;
35120;SDS011;21297;52.008;4.576;2023-07-13T09:51:03;11.50;;;2.50;;
35120;SDS011;21297;52.008;4.576;2023-07-13T09:53:58;8.30;;;2.70;;
35120;SDS011;21297;52.008;4.576;2023-07-13T09:56:44;12.43;;;2.80;;
35120;SDS011;21297;52.008;4.576;2023-07-13T09:59:32;12.70;;;3.25;;
35120;SDS011;21297;52.008;4.576;2023-07-13T10:02:23;9.25;;;2.92;;
35120;SDS011;21297;52.008;4.576;2023-07-13T10:05:14;12.30;;;2.80;;
35120;SDS011;21297;52.008;4.576;2023-07-13T10:08:01;16.85;;;3.45;;
35120;SDS011;21297;52.008;4.576;2023-07-13T10:10:52;13.15;;;3.10;;
35120;SDS011;21297;52.008;4.576;2023-07-13T10:13:51;9.50;;;2.90;;
35120;SDS011;21297;52.008;4.576;2023-07-13T10:16:41;11.80;;;3.50;;
35120;SDS011;21297;52.008;4.576;2023-07-13T10:19:31;10.88;;;2.83;;
35120;SDS011;21297;52.008;4.576;2023-07-13T10:25:46;10.95;;;2.83;;
35120;SDS011;21297;52.008;4.576;2023-07-13T10:28:35;14.50;;;3.20;;
35120;SDS011;21297;52.008;4.576;2023-07-13T10:31:23;15.20;;;3.10;;
35120;SDS011;21297;52.008;4.576;2023-07-13T10:34:10;10.52;;;3.17;;
35120;SDS011;21297;52.008;4.576;2023-07-13T10:36:57;8.05;;;2.58;;
35120;SDS011;21297;52.008;4.576;2023-07-13T10:39:44;12.48;;;2.58;;
35120;SDS011;21297;52.008;4.576;2023-07-13T10:42:31;12.82;;;3.15;;
35120;SDS011;21297;52.008;4.576;2023-07-13T10:45:23;12.20;;;3.30;;
35120;SDS011;21297;52.008;4.576;2023-07-13T10:48:11;9.75;;;2.35;;
35120;SDS011;21297;52.008;4.576;2023-07-13T10:51:00;12.20;;;2.80;;
35120;SDS011;21297;52.008;4.576;2023-07-13T10:53:47;10.77;;;2.50;;
35120;SDS011;21297;52.008;4.576;2023-07-13T10:56:33;9.88;;;2.65;;
35120;SDS011;21297;52.008;4.576;2023-07-13T10:59:26;7.97;;;2.42;;
35120;SDS011;21297;52.008;4.576;2023-07-13T11:02:26;9.70;;;2.42;;
35120;SDS011;21297;52.008;4.576;2023-07-13T11:05:47;8.40;;;2.35;;
35120;SDS011;21297;52.008;4.576;2023-07-13T11:08:33;9.63;;;3.08;;
35120;SDS011;21297;52.008;4.576;2023-07-13T11:17:33;10.82;;;2.53;;
35120;SDS011;21297;52.008;4.576;2023-07-13T11:20:22;8.00;;;2.50;;
35120;SDS011;21297;52.008;4.576;2023-07-13T11:23:18;6.75;;;2.60;;
35120;SDS011;21297;52.008;4.576;2023-07-13T11:26:57;11.32;;;2.60;;
35120;SDS011;21297;52.008;4.576;2023-07-13T11:29:33;6.10;;;2.00;;
35120;SDS011;21297;52.008;4.576;2023-07-13T11:32:29;9.82;;;2.70;;
35120;SDS011;21297;52.008;4.576;2023-07-13T11:35:19;7.00;;;2.25;;
35120;SDS011;21297;52.008;4.576;2023-07-13T11:38:14;7.88;;;2.30;;
35120;SDS011;21297;52.008;4.576;2023-07-13T11:41:04;8.60;;;2.40;;
35120;SDS011;21297;52.008;4.576;2023-07-13T11:44:14;8.60;;;2.53;;
35120;SDS011;21297;52.008;4.576;2023-07-13T11:47:14;11.65;;;2.42;;
35120;SDS011;21297;52.008;4.576;2023-07-13T11:50:05;8.50;;;2.47;;
35120;SDS011;21297;52.008;4.576;2023-07-13T11:52:52;12.43;;;2.40;;
35120;SDS011;21297;52.008;4.576;2023-07-13T11:55:39;9.30;;;2.63;;
35120;SDS011;21297;52.008;4.576;2023-07-13T11:58:26;7.28;;;2.22;;
35120;SDS011;21297;52.008;4.576;2023-07-13T12:01:16;9.48;;;2.65;;
35120;SDS011;21297;52.008;4.576;2023-07-13T12:04:08;4.43;;;1.80;;
35120;SDS011;21297;52.008;4.576;2023-07-13T12:07:16;8.30;;;1.95;;
35120;SDS011;21297;52.008;4.576;2023-07-13T12:10:17;6.07;;;2.15;;
35120;SDS011;21297;52.008;4.576;2023-07-13T12:13:04;7.72;;;2.35;;
35120;SDS011;21297;52.008;4.576;2023-07-13T12:15:50;7.53;;;2.10;;
35120;SDS011;21297;52.008;4.576;2023-07-13T12:18:37;7.00;;;1.85;;
35120;SDS011;21297;52.008;4.576;2023-07-13T12:21:27;9.73;;;2.35;;
35120;SDS011;21297;52.008;4.576;2023-07-13T12:24:20;7.53;;;2.30;;
35120;SDS011;21297;52.008;4.576;2023-07-13T12:27:18;5.45;;;1.98;;
35120;SDS011;21297;52.008;4.576;2023-07-13T12:33:12;7.30;;;2.50;;
35120;SDS011;21297;52.008;4.576;2023-07-13T12:36:00;10.93;;;2.33;;
35120;SDS011;21297;52.008;4.576;2023-07-13T12:38:48;7.47;;;2.28;;
35120;SDS011;21297;52.008;4.576;2023-07-13T12:41:34;10.15;;;2.70;;
35120;SDS011;21297;52.008;4.576;2023-07-13T12:44:29;6.85;;;2.22;;
35120;SDS011;21297;52.008;4.576;2023-07-13T12:47:16;6.35;;;1.95;;
35120;SDS011;21297;52.008;4.576;2023-07-13T12:50:13;7.73;;;2.20;;
35120;SDS011;21297;52.008;4.576;2023-07-13T12:53:05;7.00;;;1.90;;
35120;SDS011;21297;52.008;4.576;2023-07-13T12:55:53;7.68;;;1.85;;
35120;SDS011;21297;52.008;4.576;2023-07-13T12:58:45;7.70;;;1.83;;
35120;SDS011;21297;52.008;4.576;2023-07-13T13:01:34;8.88;;;2.28;;
35120;SDS011;21297;52.008;4.576;2023-07-13T13:04:22;6.65;;;2.33;;
35120;SDS011;21297;52.008;4.576;2023-07-13T13:07:09;5.22;;;1.70;;
35120;SDS011;21297;52.008;4.576;2023-07-13T13:09:55;8.45;;;2.05;;
35120;SDS011;21297;52.008;4.576;2023-07-13T13:12:41;8.10;;;2.20;;
35120;SDS011;21297;52.008;4.576;2023-07-13T13:15:30;6.78;;;1.80;;
35120;SDS011;21297;52.008;4.576;2023-07-13T13:18:17;9.25;;;1.85;;
35120;SDS011;21297;52.008;4.576;2023-07-13T13:21:04;9.88;;;2.10;;
35120;SDS011;21297;52.008;4.576;2023-07-13T13:23:50;6.65;;;1.73;;
35120;SDS011;21297;52.008;4.576;2023-07-13T13:26:37;6.95;;;2.08;;
35120;SDS011;21297;52.008;4.576;2023-07-13T13:29:23;5.45;;;1.80;;
35120;SDS011;21297;52.008;4.576;2023-07-13T13:32:11;6.88;;;1.77;;
35120;SDS011;21297;52.008;4.576;2023-07-13T13:34:59;6.63;;;1.70;;
35120;SDS011;21297;52.008;4.576;2023-07-13T13:37:45;6.63;;;1.77;;
35120;SDS011;21297;52.008;4.576;2023-07-13T13:40:32;6.28;;;1.70;;
35120;SDS011;21297;52.008;4.576;2023-07-13T13:43:22;6.65;;;1.85;;
35120;SDS011;21297;52.008;4.576;2023-07-13T13:46:16;6.60;;;1.88;;
35120;SDS011;21297;52.008;4.576;2023-07-13T13:49:04;8.93;;;2.17;;
35120;SDS011;21297;52.008;4.576;2023-07-13T13:51:50;4.38;;;1.48;;
35120;SDS011;21297;52.008;4.576;2023-07-13T13:54:37;5.68;;;1.48;;
35120;SDS011;21297;52.008;4.576;2023-07-13T13:57:23;7.80;;;2.15;;
35120;SDS011;21297;52.008;4.576;2023-07-13T14:00:10;4.38;;;1.30;;
35120;SDS011;21297;52.008;4.576;2023-07-13T14:02:59;7.63;;;2.10;;
35120;SDS011;21297;52.008;4.576;2023-07-13T14:05:45;6.10;;;1.70;;
35120;SDS011;21297;52.008;4.576;2023-07-13T14:08:32;7.30;;;1.70;;
35120;SDS011;21297;52.008;4.576;2023-07-13T14:11:20;6.03;;;1.60;;
35120;SDS011;21297;52.008;4.576;2023-07-13T14:14:08;5.95;;;1.73;;
35120;SDS011;21297;52.008;4.576;2023-07-13T14:16:59;8.93;;;1.73;;
35120;SDS011;21297;52.008;4.576;2023-07-13T14:19:45;6.63;;;1.83;;
35120;SDS011;21297;52.008;4.576;2023-07-13T14:22:31;7.40;;;1.88;;
35120;SDS011;21297;52.008;4.576;2023-07-13T14:25:17;7.72;;;1.80;;
35120;SDS011;21297;52.008;4.576;2023-07-13T14:28:13;8.32;;;1.50;;
35120;SDS011;21297;52.008;4.576;2023-07-13T14:31:00;5.40;;;1.60;;
35120;SDS011;21297;52.008;4.576;2023-07-13T14:33:46;5.72;;;1.73;;
35120;SDS011;21297;52.008;4.576;2023-07-13T14:36:34;8.55;;;1.98;;
35120;SDS011;21297;52.008;4.576;2023-07-13T14:39:24;6.90;;;1.77;;
35120;SDS011;21297;52.008;4.576;2023-07-13T14:42:10;5.72;;;1.80;;
35120;SDS011;21297;52.008;4.576;2023-07-13T14:44:56;4.90;;;1.73;;
35120;SDS011;21297;52.008;4.576;2023-07-13T14:47:42;10.13;;;1.65;;
35120;SDS011;21297;52.008;4.576;2023-07-13T14:50:30;10.18;;;1.98;;
35120;SDS011;21297;52.008;4.576;2023-07-13T14:53:17;5.78;;;1.70;;
35120;SDS011;21297;52.008;4.576;2023-07-13T14:56:09;7.55;;;1.95;;
35120;SDS011;21297;52.008;4.576;2023-07-13T14:58:56;8.07;;;1.85;;
35120;SDS011;21297;52.008;4.576;2023-07-13T15:01:42;8.90;;;1.95;;
35120;SDS011;21297;52.008;4.576;2023-07-13T15:04:29;8.30;;;2.10;;
35120;SDS011;21297;52.008;4.576;2023-07-13T15:07:15;6.63;;;1.52;;
35120;SDS011;21297;52.008;4.576;2023-07-13T15:10:11;7.30;;;1.63;;
35120;SDS011;21297;52.008;4.576;2023-07-13T15:13:13;5.97;;;1.60;;
35120;SDS011;21297;52.008;4.576;2023-07-13T15:16:16;6.53;;;1.88;;
35120;SDS011;21297;52.008;4.576;2023-07-13T15:19:04;5.90;;;1.83;;
35120;SDS011;21297;52.008;4.576;2023-07-13T15:21:49;8.43;;;1.85;;
35120;SDS011;21297;52.008;4.576;2023-07-13T15:24:37;7.82;;;2.08;;
35120;SDS011;21297;52.008;4.576;2023-07-13T15:27:23;5.82;;;1.58;;
35120;SDS011;21297;52.008;4.576;2023-07-13T15:30:09;5.75;;;1.58;;
35120;SDS011;21297;52.008;4.576;2023-07-13T15:33:00;4.85;;;1.60;;
35120;SDS011;21297;52.008;4.576;2023-07-13T15:35:51;7.57;;;1.83;;
35120;SDS011;21297;52.008;4.576;2023-07-13T15:38:38;6.20;;;1.70;;
35120;SDS011;21297;52.008;4.576;2023-07-13T15:41:26;6.20;;;1.52;;
35120;SDS011;21297;52.008;4.576;2023-07-13T15:44:21;5.65;;;1.58;;
35120;SDS011;21297;52.008;4.576;2023-07-13T15:47:15;9.43;;;2.20;;
35120;SDS011;21297;52.008;4.576;2023-07-13T15:50:04;9.98;;;1.95;;
35120;SDS011;21297;52.008;4.576;2023-07-13T15:52:51;6.97;;;1.60;;
35120;SDS011;21297;52.008;4.576;2023-07-13T15:55:44;7.55;;;2.22;;
35120;SDS011;21297;52.008;4.576;2023-07-13T15:58:30;4.03;;;1.55;;
35120;SDS011;21297;52.008;4.576;2023-07-13T16:01:16;7.60;;;1.98;;
35120;SDS011;21297;52.008;4.576;2023-07-13T16:04:03;5.53;;;1.67;;
35120;SDS011;21297;52.008;4.576;2023-07-13T16:06:48;7.95;;;1.90;;
35120;SDS011;21297;52.008;4.576;2023-07-13T16:09:35;6.53;;;1.73;;
35120;SDS011;21297;52.008;4.576;2023-07-13T16:12:21;7.85;;;1.80;;
35120;SDS011;21297;52.008;4.576;2023-07-13T16:15:14;6.80;;;2.13;;
35120;SDS011;21297;52.008;4.576;2023-07-13T16:18:01;8.57;;;2.10;;
35120;SDS011;21297;52.008;4.576;2023-07-13T16:20:48;5.82;;;1.80;;
35120;SDS011;21297;52.008;4.576;2023-07-13T16:23:34;8.43;;;1.73;;
35120;SDS011;21297;52.008;4.576;2023-07-13T16:29:28;8.15;;;1.90;;
35120;SDS011;21297;52.008;4.576;2023-07-13T16:32:15;6.97;;;2.00;;
35120;SDS011;21297;52.008;4.576;2023-07-13T16:35:01;8.30;;;1.90;;
35120;SDS011;21297;52.008;4.576;2023-07-13T16:37:47;6.72;;;1.70;;
35120;SDS011;21297;52.008;4.576;2023-07-13T16:40:33;6.90;;;1.80;;
35120;SDS011;21297;52.008;4.576;2023-07-13T16:43:24;8.10;;;2.08;;
35120;SDS011;21297;52.008;4.576;2023-07-13T16:46:11;7.82;;;1.80;;
35120;SDS011;21297;52.008;4.576;2023-07-13T16:49:01;9.32;;;2.10;;
35120;SDS011;21297;52.008;4.576;2023-07-13T16:51:47;7.07;;;1.65;;
35120;SDS011;21297;52.008;4.576;2023-07-13T16:54:34;8.50;;;2.05;;
35120;SDS011;21297;52.008;4.576;2023-07-13T16:57:23;7.05;;;1.80;;
35120;SDS011;21297;52.008;4.576;2023-07-13T17:00:25;7.60;;;1.67;;
35120;SDS011;21297;52.008;4.576;2023-07-13T17:03:13;7.55;;;1.45;;
35120;SDS011;21297;52.008;4.576;2023-07-13T17:05:58;7.93;;;1.92;;
35120;SDS011;21297;52.008;4.576;2023-07-13T17:08:48;7.20;;;1.80;;
35120;SDS011;21297;52.008;4.576;2023-07-13T17:14:30;6.25;;;1.77;;
35120;SDS011;21297;52.008;4.576;2023-07-13T17:17:28;7.63;;;1.55;;
35120;SDS011;21297;52.008;4.576;2023-07-13T17:20:22;6.10;;;1.65;;
35120;SDS011;21297;52.008;4.576;2023-07-13T17:26:00;6.82;;;2.58;;
35120;SDS011;21297;52.008;4.576;2023-07-13T17:28:47;8.77;;;1.85;;
35120;SDS011;21297;52.008;4.576;2023-07-13T17:31:33;6.03;;;1.65;;
35120;SDS011;21297;52.008;4.576;2023-07-13T17:34:20;12.70;;;2.83;;
35120;SDS011;21297;52.008;4.576;2023-07-13T17:37:07;6.45;;;1.70;;
35120;SDS011;21297;52.008;4.576;2023-07-13T17:39:56;8.52;;;2.22;;
35120;SDS011;21297;52.008;4.576;2023-07-13T17:42:43;8.50;;;2.17;;
35120;SDS011;21297;52.008;4.576;2023-07-13T17:45:32;11.20;;;1.70;;
35120;SDS011;21297;52.008;4.576;2023-07-13T17:48:18;9.10;;;1.80;;
35120;SDS011;21297;52.008;4.576;2023-07-13T17:51:07;7.20;;;1.63;;
35120;SDS011;21297;52.008;4.576;2023-07-13T17:53:55;9.13;;;1.80;;
35120;SDS011;21297;52.008;4.576;2023-07-13T17:56:41;7.80;;;1.80;;
35120;SDS011;21297;52.008;4.576;2023-07-13T17:59:27;6.38;;;1.33;;
35120;SDS011;21297;52.008;4.576;2023-07-13T18:02:16;8.30;;;1.60;;
35120;SDS011;21297;52.008;4.576;2023-07-13T18:05:08;11.25;;;2.00;;
35120;SDS011;21297;52.008;4.576;2023-07-13T18:07:59;11.05;;;2.03;;
35120;SDS011;21297;52.008;4.576;2023-07-13T18:10:45;7.07;;;1.73;;
35120;SDS011;21297;52.008;4.576;2023-07-13T18:13:31;9.38;;;2.10;;
35120;SDS011;21297;52.008;4.576;2023-07-13T18:16:25;6.72;;;1.83;;
35120;SDS011;21297;52.008;4.576;2023-07-13T18:19:24;8.53;;;2.10;;
35120;SDS011;21297;52.008;4.576;2023-07-13T18:22:18;8.55;;;2.20;;
35120;SDS011;21297;52.008;4.576;2023-07-13T18:25:10;10.27;;;1.95;;
35120;SDS011;21297;52.008;4.576;2023-07-13T18:27:57;8.85;;;1.95;;
35120;SDS011;21297;52.008;4.576;2023-07-13T18:30:44;6.47;;;1.88;;
35120;SDS011;21297;52.008;4.576;2023-07-13T18:33:32;8.93;;;2.50;;
35120;SDS011;21297;52.008;4.576;2023-07-13T18:36:20;7.75;;;1.90;;
35120;SDS011;21297;52.008;4.576;2023-07-13T18:39:11;7.70;;;2.20;;
35120;SDS011;21297;52.008;4.576;2023-07-13T18:41:59;8.00;;;1.63;;
35120;SDS011;21297;52.008;4.576;2023-07-13T18:44:45;9.85;;;2.28;;
35120;SDS011;21297;52.008;4.576;2023-07-13T18:47:32;6.50;;;1.80;;
35120;SDS011;21297;52.008;4.576;2023-07-13T18:50:23;10.75;;;2.08;;
35120;SDS011;21297;52.008;4.576;2023-07-13T18:53:13;11.38;;;1.73;;
35120;SDS011;21297;52.008;4.576;2023-07-13T18:56:00;6.70;;;1.80;;
35120;SDS011;21297;52.008;4.576;2023-07-13T18:58:46;9.90;;;1.60;;
35120;SDS011;21297;52.008;4.576;2023-07-13T19:01:33;7.18;;;1.50;;
35120;SDS011;21297;52.008;4.576;2023-07-13T19:04:30;9.82;;;1.80;;
35120;SDS011;21297;52.008;4.576;2023-07-13T19:07:16;6.93;;;1.65;;
35120;SDS011;21297;52.008;4.576;2023-07-13T19:10:02;9.10;;;2.05;;
35120;SDS011;21297;52.008;4.576;2023-07-13T19:12:52;8.75;;;1.45;;
35120;SDS011;21297;52.008;4.576;2023-07-13T19:15:41;7.43;;;1.70;;
35120;SDS011;21297;52.008;4.576;2023-07-13T19:18:27;7.15;;;1.35;;
35120;SDS011;21297;52.008;4.576;2023-07-13T19:21:19;6.53;;;1.60;;
35120;SDS011;21297;52.008;4.576;2023-07-13T19:24:12;6.93;;;1.65;;
35120;SDS011;21297;52.008;4.576;2023-07-13T19:27:01;8.43;;;1.65;;
35120;SDS011;21297;52.008;4.576;2023-07-13T19:29:47;8.73;;;1.58;;
35120;SDS011;21297;52.008;4.576;2023-07-13T19:32:33;8.63;;;1.60;;
35120;SDS011;21297;52.008;4.576;2023-07-13T19:35:19;10.35;;;1.70;;
35120;SDS011;21297;52.008;4.576;2023-07-13T19:38:08;8.63;;;1.80;;
35120;SDS011;21297;52.008;4.576;2023-07-13T19:41:13;7.63;;;1.58;;
35120;SDS011;21297;52.008;4.576;2023-07-13T19:44:00;6.75;;;1.65;;
35120;SDS011;21297;52.008;4.576;2023-07-13T19:46:46;9.98;;;1.70;;
35120;SDS011;21297;52.008;4.576;2023-07-13T19:49:32;9.65;;;1.50;;
35120;SDS011;21297;52.008;4.576;2023-07-13T19:52:19;6.88;;;1.60;;
35120;SDS011;21297;52.008;4.576;2023-07-13T19:55:08;10.45;;;1.75;;
35120;SDS011;21297;52.008;4.576;2023-07-13T19:57:57;11.80;;;1.90;;
35120;SDS011;21297;52.008;4.576;2023-07-13T20:00:42;11.63;;;1.98;;
35120;SDS011;21297;52.008;4.576;2023-07-13T20:03:29;9.55;;;1.85;;
35120;SDS011;21297;52.008;4.576;2023-07-13T20:06:26;8.90;;;1.75;;
35120;SDS011;21297;52.008;4.576;2023-07-13T20:09:19;8.77;;;1.70;;
35120;SDS011;21297;52.008;4.576;2023-07-13T20:12:10;6.10;;;1.60;;
35120;SDS011;21297;52.008;4.576;2023-07-13T20:14:58;11.00;;;1.77;;
35120;SDS011;21297;52.008;4.576;2023-07-13T20:17:46;7.53;;;1.67;;